createdAt,value
2023-04-18T00:01:08.519Z,99450.75
2023-04-18T00:03:38.073Z,99454.47
2023-04-18T00:06:05.435Z,99448.91
2023-04-18T00:08:33.983Z,99442.66
2023-04-18T00:11:02.296Z,99449.00
2023-04-18T00:13:29.007Z,99445.91
2023-04-18T00:15:57.123Z,99445.13
2023-04-18T00:18:24.195Z,99441.69
2023-04-18T00:20:51.046Z,99448.66
2023-04-18T00:23:17.834Z,99451.59
2023-04-18T00:25:44.692Z,99447.56
2023-04-18T00:28:11.506Z,99444.75
2023-04-18T00:30:38.290Z,99446.13
2023-04-18T00:33:05.326Z,99443.78
2023-04-18T00:35:57.045Z,99452.00
2023-04-18T00:38:24.083Z,99459.91
2023-04-18T00:40:50.957Z,99451.50
2023-04-18T00:43:17.684Z,99452.78
2023-04-18T00:45:44.922Z,99451.50
2023-04-18T00:48:12.060Z,99452.00
2023-04-18T00:50:40.608Z,99449.94
2023-04-18T00:53:11.268Z,99449.19
2023-04-18T00:55:39.144Z,99451.81
2023-04-18T00:58:06.036Z,99451.03
2023-04-18T01:00:33.366Z,99453.34
2023-04-18T01:03:00.899Z,99448.41
2023-04-18T01:05:27.881Z,99447.63
2023-04-18T01:07:55.472Z,99445.78
2023-04-18T01:10:22.239Z,99451.31
2023-04-18T01:12:49.900Z,99449.47
2023-04-18T01:15:17.321Z,99454.72
2023-04-18T01:17:44.146Z,99449.19
2023-04-18T01:20:13.814Z,99454.91
2023-04-18T01:22:40.733Z,99447.13
2023-04-18T01:25:09.309Z,99451.22
2023-04-18T01:27:36.323Z,99454.31
2023-04-18T01:30:03.222Z,99459.00
2023-04-18T01:32:30.118Z,99453.25
2023-04-18T01:34:57.772Z,99455.41
2023-04-18T01:37:24.540Z,99450.63
2023-04-18T01:39:51.398Z,99455.91
2023-04-18T01:42:18.942Z,99451.41
2023-04-18T01:44:45.663Z,99452.59
2023-04-18T01:47:12.900Z,99460.97
2023-04-18T01:49:41.008Z,99455.91
2023-04-18T01:52:08.643Z,99449.06
2023-04-18T01:54:35.623Z,99452.97
2023-04-18T01:57:02.346Z,99456.50
2023-04-18T01:59:30.706Z,99449.66
2023-04-18T02:01:59.132Z,99451.69
2023-04-18T02:04:26.680Z,99451.22
2023-04-18T02:06:53.544Z,99450.13
2023-04-18T02:09:20.475Z,99445.94
2023-04-18T02:11:47.344Z,99455.72
2023-04-18T02:14:14.387Z,99456.75
2023-04-18T02:16:41.921Z,99447.44
2023-04-18T02:19:08.692Z,99453.94
2023-04-18T02:21:35.591Z,99454.44
2023-04-18T02:24:02.256Z,99452.97
2023-04-18T02:26:30.704Z,99451.44
2023-04-18T02:28:57.930Z,99454.84
2023-04-18T02:31:24.925Z,99455.94
2023-04-18T02:33:51.680Z,99456.41
2023-04-18T02:36:22.036Z,99453.75
2023-04-18T02:38:48.853Z,99453.75
2023-04-18T02:41:15.642Z,99452.22
2023-04-18T02:43:43.273Z,99460.22
2023-04-18T02:46:10.721Z,99455.16
2023-04-18T02:48:38.014Z,99463.91
2023-04-18T02:51:08.719Z,99459.91
2023-04-18T02:53:37.936Z,99463.63
2023-04-18T02:56:05.879Z,99464.69
2023-04-18T02:58:51.455Z,99470.75
2023-04-18T03:01:48.578Z,99471.53
2023-04-18T03:04:18.775Z,99466.84
2023-04-18T03:06:54.971Z,99464.41
2023-04-18T03:09:22.630Z,99466.84
2023-04-18T03:11:55.712Z,99466.84
2023-04-18T03:14:26.240Z,99458.97
2023-04-18T03:16:55.775Z,99461.41
2023-04-18T03:19:28.029Z,99456.91
2023-04-18T03:21:56.460Z,99458.78
2023-04-18T03:24:23.365Z,99461.88
2023-04-18T03:26:52.891Z,99462.75
2023-04-18T03:29:25.200Z,99454.41
2023-04-18T03:31:53.784Z,99457.31
2023-04-18T03:34:20.591Z,99459.47
2023-04-18T03:36:48.415Z,99460.53
2023-04-18T03:39:19.833Z,99467.19
2023-04-18T03:41:46.702Z,99465.59
2023-04-18T03:44:14.529Z,99471.44
2023-04-18T03:46:42.269Z,99464.34
2023-04-18T03:49:10.424Z,99462.69
2023-04-18T03:51:50.346Z,99466.28
2023-04-18T03:54:18.505Z,99459.47
2023-04-18T03:56:50.346Z,99463.16
2023-04-18T03:59:19.008Z,99460.34
2023-04-18T04:01:49.187Z,99474.00
2023-04-18T04:04:17.935Z,99472.44
2023-04-18T04:06:45.433Z,99469.00
2023-04-18T04:09:16.581Z,99474.00
2023-04-18T04:11:44.329Z,99477.72
2023-04-18T04:14:13.861Z,99482.47
2023-04-18T04:16:46.366Z,99483.84
2023-04-18T04:19:16.231Z,99479.06
2023-04-18T04:21:58.462Z,99484.41
2023-04-18T04:24:27.141Z,99489.22
2023-04-18T04:26:54.672Z,99491.25
2023-04-18T04:29:23.984Z,99489.69
2023-04-18T04:31:53.111Z,99500.72
2023-04-18T04:34:31.226Z,99504.13
2023-04-18T04:36:59.390Z,99503.84
2023-04-18T04:39:31.222Z,99507.72
2023-04-18T04:42:21.199Z,99504.31
2023-04-18T04:44:56.156Z,99504.31
2023-04-18T04:47:24.184Z,99506.94
2023-04-18T04:49:50.943Z,99503.84
2023-04-18T04:52:18.450Z,99511.94
2023-04-18T04:54:45.898Z,99508.28
2023-04-18T04:57:15.237Z,99505.28
2023-04-18T04:59:44.514Z,99500.91
2023-04-18T05:02:12.416Z,99512.97
2023-04-18T05:04:41.270Z,99517.47
2023-04-18T05:07:08.357Z,99507.81
2023-04-18T05:09:35.140Z,99514.94
2023-04-18T05:12:02.882Z,99511.72
2023-04-18T05:14:29.559Z,99517.78
2023-04-18T05:16:57.282Z,99517.56
2023-04-18T05:19:24.150Z,99518.03
2023-04-18T05:21:51.231Z,99519.72
2023-04-18T05:24:18.062Z,99518.94
2023-04-18T05:26:44.983Z,99522.25
2023-04-18T05:29:15.300Z,99520.69
2023-04-18T05:31:42.882Z,99525.09
2023-04-18T05:34:12.378Z,99525.94
2023-04-18T05:36:39.283Z,99533.16
2023-04-18T05:39:06.920Z,99531.78
2023-04-18T05:41:35.061Z,99524.38
2023-04-18T05:44:05.607Z,99534.16
2023-04-18T05:46:35.207Z,99526.84
2023-04-18T05:51:53.714Z,99527.53
2023-04-18T05:54:20.379Z,99526.13
2023-04-18T05:56:47.401Z,99527.22
2023-04-18T05:59:14.349Z,99524.91
2023-04-18T06:01:41.291Z,99526.91
2023-04-18T06:04:09.621Z,99531.59
2023-04-18T06:06:38.298Z,99528.97
2023-04-18T06:09:05.195Z,99530.03
2023-04-18T06:11:31.899Z,99530.25
2023-04-18T06:13:59.032Z,99530.44
2023-04-18T06:16:25.867Z,99519.03
2023-04-18T06:18:53.774Z,99532.97
2023-04-18T06:21:22.352Z,99529.84
2023-04-18T06:23:50.646Z,99530.31
2023-04-18T06:26:18.294Z,99538.03
2023-04-18T06:28:45.001Z,99539.03
2023-04-18T06:31:12.383Z,99543.50
2023-04-18T06:33:39.473Z,99546.63
2023-04-18T06:36:10.515Z,99540.19
2023-04-18T06:38:37.326Z,99540.06
2023-04-18T06:41:05.879Z,99546.22
2023-04-18T06:43:36.530Z,99554.13
2023-04-18T06:46:05.532Z,99552.78
2023-04-18T06:48:32.278Z,99551.69
2023-04-18T06:51:03.665Z,99549.38
2023-04-18T06:53:33.699Z,99555.22
2023-04-18T06:56:01.410Z,99548.56
2023-04-18T06:58:53.241Z,99562.03
2023-04-18T07:01:21.534Z,99559.09
2023-04-18T07:03:48.360Z,99562.03
2023-04-18T07:06:15.628Z,99564.16
2023-04-18T07:08:46.290Z,99554.13
2023-04-18T07:11:13.693Z,99563.50
2023-04-18T07:13:40.399Z,99564.75
2023-04-18T07:19:00.818Z,99556.25
2023-04-18T07:21:27.520Z,99563.13
2023-04-18T07:23:56.280Z,99561.25
2023-04-18T07:26:23.840Z,99563.13
2023-04-18T07:28:52.263Z,99565.75
2023-04-18T07:31:19.008Z,99563.13
2023-04-18T07:33:48.484Z,99567.56
2023-04-18T07:36:15.233Z,99563.88
2023-04-18T07:38:44.286Z,99564.47
2023-04-18T07:41:13.648Z,99571.09
2023-04-18T07:43:40.668Z,99572.66
2023-04-18T07:46:07.781Z,99576.47
2023-04-18T07:48:34.639Z,99571.88
2023-04-18T07:51:01.398Z,99582.13
2023-04-18T07:53:29.866Z,99575.66
2023-04-18T07:55:57.366Z,99582.50
2023-04-18T07:58:24.675Z,99584.38
2023-04-18T08:00:51.375Z,99586.41
2023-04-18T08:03:18.932Z,99583.47
2023-04-18T08:05:45.885Z,99585.34
2023-04-18T08:08:12.975Z,99582.78
2023-04-18T08:10:43.771Z,99587.97
2023-04-18T08:13:10.500Z,99587.97
2023-04-18T08:15:37.416Z,99578.69
2023-04-18T08:18:04.239Z,99590.81
2023-04-18T08:20:31.696Z,99591.28
2023-04-18T08:23:07.578Z,99593.72
2023-04-18T08:25:38.343Z,99590.03
2023-04-18T08:28:05.790Z,99592.84
2023-04-18T08:30:32.648Z,99587.41
2023-04-18T08:33:03.399Z,99599.19
2023-04-18T08:35:30.768Z,99602.19
2023-04-18T08:37:57.456Z,99601.34
2023-04-18T08:40:24.879Z,99601.03
2023-04-18T08:42:52.938Z,99594.97
2023-04-18T08:45:20.461Z,99601.53
2023-04-18T08:47:47.527Z,99597.63
2023-04-18T08:50:14.238Z,99609.72
2023-04-18T08:52:46.058Z,99611.88
2023-04-18T08:55:13.796Z,99606.59
2023-04-18T08:57:40.532Z,99615.56
2023-04-18T09:00:08.390Z,99605.03
2023-04-18T09:02:40.577Z,99605.78
2023-04-18T09:05:20.342Z,99614.50
2023-04-18T09:07:49.563Z,99618.09
2023-04-18T09:10:35.373Z,99619.97
2023-04-18T09:13:03.943Z,99611.19
2023-04-18T09:15:31.341Z,99611.66
2023-04-18T09:18:04.613Z,99620.03
2023-04-18T09:20:41.663Z,99622.09
2023-04-18T09:23:13.154Z,99622.56
2023-04-18T09:25:47.417Z,99616.44
2023-04-18T09:28:28.304Z,99609.19
2023-04-18T09:30:56.876Z,99609.09
2023-04-18T09:33:31.289Z,99602.16
2023-04-18T09:36:26.115Z,99600.84
2023-04-18T09:38:58.405Z,99607.84
2023-04-18T09:41:28.741Z,99609.13
2023-04-18T09:44:14.409Z,99609.31
2023-04-18T09:47:07.251Z,99605.38
2023-04-18T09:49:34.210Z,99617.69
2023-04-18T09:52:32.121Z,99612.88
2023-04-18T09:55:02.402Z,99608.88
2023-04-18T09:57:31.305Z,99614.03
2023-04-18T10:00:10.531Z,99612.66
2023-04-18T10:02:48.439Z,99611.13
2023-04-18T10:05:15.710Z,99614.72
2023-04-18T10:07:45.876Z,99607.44
2023-04-18T10:10:13.237Z,99617.56
2023-04-18T10:12:45.268Z,99615.28
2023-04-18T10:15:12.836Z,99612.06
2023-04-18T10:20:49.337Z,99617.09
2023-04-18T10:23:32.252Z,99612.94
2023-04-18T10:25:59.443Z,99609.53
2023-04-18T10:28:26.614Z,99611.66
2023-04-18T10:31:02.382Z,99611.84
2023-04-18T10:33:42.469Z,99610.00
2023-04-18T10:36:09.672Z,99612.66
2023-04-18T10:38:37.831Z,99616.06
2023-04-18T10:41:23.083Z,99614.19
2023-04-18T10:44:11.207Z,99613.09
2023-04-18T10:46:39.311Z,99614.38
2023-04-18T10:49:13.443Z,99605.69
2023-04-18T10:55:05.406Z,99609.13
2023-04-18T10:57:49.705Z,99604.63
2023-04-18T11:00:19.060Z,99607.91
2023-04-18T11:02:50.222Z,99610.44
2023-04-18T11:05:22.262Z,99610.81
2023-04-18T11:07:49.912Z,99605.25
2023-04-18T11:10:19.057Z,99605.41
2023-04-18T11:12:50.377Z,99599.81
2023-04-18T11:15:27.099Z,99605.53
2023-04-18T11:18:00.013Z,99601.00
2023-04-18T11:20:27.654Z,99594.94
2023-04-18T11:22:57.479Z,99596.94
2023-04-18T11:25:35.386Z,99602.06
2023-04-18T11:28:06.292Z,99599.59
2023-04-18T11:30:38.955Z,99602.72
2023-04-18T11:33:09.404Z,99603.81
2023-04-18T11:35:39.119Z,99609.38
2023-04-18T11:38:06.657Z,99605.97
2023-04-18T11:40:33.594Z,99609.69
2023-04-18T11:43:05.773Z,99614.63
2023-04-18T11:45:33.969Z,99620.22
2023-04-18T11:48:02.434Z,99615.56
2023-04-18T11:50:35.746Z,99613.81
2023-04-18T11:53:04.282Z,99612.25
2023-04-18T11:55:32.904Z,99617.53
2023-04-18T11:58:02.599Z,99611.47
2023-04-18T12:00:36.965Z,99612.19
2023-04-18T12:03:07.074Z,99609.38
2023-04-18T12:05:36.613Z,99609.72
2023-04-18T12:08:09.279Z,99611.31
2023-04-18T12:10:36.896Z,99609.72
2023-04-18T12:13:08.549Z,99615.50
2023-04-18T12:15:39.439Z,99611.13
2023-04-18T12:18:06.810Z,99615.19
2023-04-18T12:20:35.530Z,99621.44
2023-04-18T12:23:03.409Z,99620.53
2023-04-18T12:25:30.304Z,99619.78
2023-04-18T12:28:00.374Z,99618.22
2023-04-18T12:30:35.964Z,99614.50
2023-04-18T12:33:05.353Z,99617.13
2023-04-18T12:35:32.937Z,99619.59
2023-04-18T12:38:02.101Z,99626.75
2023-04-18T12:40:30.047Z,99629.53
2023-04-18T12:43:02.869Z,99632.88
2023-04-18T12:45:34.366Z,99620.28
2023-04-18T12:48:01.303Z,99631.94
2023-04-18T12:50:28.933Z,99630.84
2023-04-18T12:52:59.442Z,99629.31
2023-04-18T12:55:28.762Z,99629.31
2023-04-18T12:57:56.375Z,99629.91
2023-04-18T13:00:48.300Z,99631.91
2023-04-18T13:03:16.139Z,99636.41
2023-04-18T13:05:43.241Z,99637.28
2023-04-18T13:08:17.499Z,99633.69
2023-04-18T13:10:46.826Z,99626.75
2023-04-18T13:13:13.947Z,99629.56
2023-04-18T13:15:40.704Z,99625.38
2023-04-18T13:18:07.787Z,99622.13
2023-04-18T13:20:35.707Z,99624.59
2023-04-18T13:23:03.290Z,99632.69
2023-04-18T13:25:30.094Z,99623.84
2023-04-18T13:27:57.732Z,99627.44
2023-04-18T13:30:24.525Z,99621.09
2023-04-18T13:32:51.547Z,99614.91
2023-04-18T13:35:19.381Z,99612.84
2023-04-18T13:37:46.335Z,99610.22
2023-04-18T13:40:13.630Z,99614.41
2023-04-18T13:42:40.848Z,99619.22
2023-04-18T13:45:07.928Z,99614.13
2023-04-18T13:47:36.005Z,99620.94
2023-04-18T13:50:02.899Z,99617.81
2023-04-18T13:52:29.660Z,99617.97
2023-04-18T13:54:58.272Z,99626.19
2023-04-18T13:57:24.932Z,99622.75
2023-04-18T13:59:51.732Z,99630.06
2023-04-18T14:02:18.602Z,99627.25
2023-04-18T14:04:45.526Z,99618.75
2023-04-18T14:07:13.333Z,99626.66
2023-04-18T14:09:40.104Z,99626.50
2023-04-18T14:12:08.506Z,99626.97
2023-04-18T14:14:35.208Z,99621.88
2023-04-18T14:17:03.324Z,99628.03
2023-04-18T14:19:30.063Z,99624.63
2023-04-18T14:21:56.876Z,99621.94
2023-04-18T14:24:27.334Z,99626.75
2023-04-18T14:26:54.817Z,99625.50
2023-04-18T14:29:21.628Z,99629.38
2023-04-18T14:31:48.704Z,99625.50
2023-04-18T14:34:17.006Z,99620.81
2023-04-18T14:36:44.360Z,99624.22
2023-04-18T14:39:11.192Z,99624.53
2023-04-18T14:41:38.362Z,99621.88
2023-04-18T14:44:05.113Z,99629.03
2023-04-18T14:46:32.343Z,99625.59
2023-04-18T14:48:59.946Z,99614.59
2023-04-18T14:51:26.695Z,99620.47
2023-04-18T14:54:18.195Z,99612.56
2023-04-18T14:56:45.103Z,99618.28
2023-04-18T14:59:13.587Z,99618.28
2023-04-18T15:01:44.236Z,99616.56
2023-04-18T15:04:11.293Z,99615.47
2023-04-18T15:07:09.054Z,99612.66
2023-04-18T15:09:38.227Z,99611.59
2023-04-18T15:12:06.297Z,99619.50
2023-04-18T15:14:34.018Z,99622.94
2023-04-18T15:17:00.822Z,99631.63
2023-04-18T15:19:28.294Z,99628.66
2023-04-18T15:21:58.392Z,99631.63
2023-04-18T15:24:25.200Z,99628.84
2023-04-18T15:26:52.841Z,99626.53
2023-04-18T15:29:21.362Z,99628.66
2023-04-18T15:31:49.900Z,99633.00
2023-04-18T15:34:17.413Z,99628.50
2023-04-18T15:36:44.513Z,99633.00
2023-04-18T15:39:11.242Z,99639.19
2023-04-18T15:41:39.968Z,99631.53
2023-04-18T15:44:08.335Z,99631.84
2023-04-18T15:46:35.046Z,99635.09
2023-04-18T15:49:02.878Z,99633.63
2023-04-18T15:51:29.624Z,99641.38
2023-04-18T15:53:56.999Z,99637.97
2023-04-18T15:56:26.410Z,99633.47
2023-04-18T15:58:56.495Z,99631.44
2023-04-18T16:01:24.363Z,99633.69
2023-04-18T16:03:51.128Z,99627.25
2023-04-18T16:06:20.375Z,99627.88
2023-04-18T16:08:47.073Z,99627.38
2023-04-18T16:11:15.021Z,99622.69
2023-04-18T16:13:41.840Z,99630.31
2023-04-18T16:16:11.906Z,99632.28
2023-04-18T16:18:39.387Z,99634.31
2023-04-18T16:21:06.275Z,99637.13
2023-04-18T16:23:33.088Z,99629.88
2023-04-18T16:25:59.905Z,99629.88
2023-04-18T16:28:27.212Z,99626.78
2023-04-18T16:30:55.617Z,99625.31
2023-04-18T16:33:22.861Z,99624.94
2023-04-18T16:35:49.700Z,99620.97
2023-04-18T16:38:16.736Z,99608.38
2023-04-18T16:40:43.556Z,99610.66
2023-04-18T16:43:10.910Z,99610.16
2023-04-18T16:45:37.719Z,99608.41
2023-04-18T16:48:04.973Z,99619.84
2023-04-18T16:50:31.863Z,99618.88
2023-04-18T16:52:59.148Z,99616.81
2023-04-18T16:55:25.992Z,99622.88
2023-04-18T16:57:53.101Z,99610.00
2023-04-18T17:00:19.990Z,99614.28
2023-04-18T17:02:47.313Z,99619.66
2023-04-18T17:05:14.508Z,99621.81
2023-04-18T17:07:41.701Z,99627.06
2023-04-18T17:10:10.127Z,99624.16
2023-04-18T17:12:36.959Z,99625.44
2023-04-18T17:15:04.608Z,99634.59
2023-04-18T17:17:31.509Z,99633.53
2023-04-18T17:19:58.278Z,99628.34
2023-04-18T17:22:25.537Z,99628.94
2023-04-18T17:24:54.758Z,99635.59
2023-04-18T17:27:22.197Z,99628.72
2023-04-18T17:29:49.426Z,99631.09
2023-04-18T17:32:17.400Z,99638.50
2023-04-18T17:34:45.066Z,99644.06
2023-04-18T17:37:12.731Z,99639.38
2023-04-18T17:39:41.294Z,99649.41
2023-04-18T17:42:10.305Z,99652.03
2023-04-18T17:44:38.758Z,99657.31
2023-04-18T17:47:07.016Z,99661.34
2023-04-18T17:49:34.457Z,99657.41
2023-04-18T17:52:03.582Z,99664.25
2023-04-18T17:54:30.647Z,99657.91
2023-04-18T17:56:59.346Z,99663.47
2023-04-18T17:59:26.720Z,99669.03
2023-04-18T18:01:54.796Z,99675.28
2023-04-18T18:04:24.906Z,99671.06
2023-04-18T18:06:57.715Z,99676.53
2023-04-18T18:09:25.242Z,99674.69
2023-04-18T18:11:55.324Z,99677.03
2023-04-18T18:14:49.742Z,99680.44
2023-04-18T18:17:17.342Z,99689.69
2023-04-18T18:19:44.225Z,99692.34
2023-04-18T18:22:13.063Z,99693.91
2023-04-18T18:24:42.200Z,99703.88
2023-04-18T18:27:10.645Z,99704.34
2023-04-18T18:29:38.784Z,99702.69
2023-04-18T18:32:09.560Z,99696.75
2023-04-18T18:34:37.037Z,99703.38
2023-04-18T18:37:07.445Z,99706.88
2023-04-18T18:39:34.840Z,99703.16
2023-04-18T18:42:02.564Z,99706.31
2023-04-18T18:44:30.207Z,99705.22
2023-04-18T18:47:00.841Z,99709.41
2023-04-18T18:49:28.326Z,99711.56
2023-04-18T18:51:57.456Z,99704.72
2023-04-18T18:54:26.993Z,99707.94
2023-04-18T18:57:00.176Z,99705.09
2023-04-18T18:59:28.088Z,99705.97
2023-04-18T19:01:55.494Z,99705.00
2023-04-18T19:04:25.331Z,99712.50
2023-04-18T19:06:54.037Z,99709.09
2023-04-18T19:09:23.534Z,99713.06
2023-04-18T19:11:53.371Z,99707.81
2023-04-18T19:14:24.388Z,99704.19
2023-04-18T19:19:44.181Z,99708.47
2023-04-18T19:22:13.780Z,99703.28
2023-04-18T19:24:41.145Z,99710.41
2023-04-18T19:27:10.854Z,99704.56
2023-04-18T19:29:41.486Z,99703.16
2023-04-18T19:32:09.849Z,99710.69
2023-04-18T19:34:40.656Z,99713.03
2023-04-18T19:37:08.786Z,99709.34
2023-04-18T19:40:00.846Z,99715.09
2023-04-18T19:42:30.846Z,99716.38
2023-04-18T19:45:01.334Z,99716.66
2023-04-18T19:47:30.026Z,99715.88
2023-04-18T19:49:57.515Z,99715.09
2023-04-18T19:55:41.725Z,99723.97
2023-04-18T19:58:09.718Z,99717.72
2023-04-18T20:00:37.942Z,99716.84
2023-04-18T20:03:05.719Z,99705.53
2023-04-18T20:05:33.868Z,99703.78
2023-04-18T20:08:07.128Z,99701.66
2023-04-18T20:10:34.729Z,99711.38
2023-04-18T20:13:26.804Z,99708.47
2023-04-18T20:15:55.272Z,99701.25
2023-04-18T20:21:15.908Z,99702.03
2023-04-18T20:23:44.272Z,99706.00
2023-04-18T20:26:12.520Z,99707.50
2023-04-18T20:28:42.316Z,99714.63
2023-04-18T20:31:12.188Z,99709.56
2023-04-18T20:33:41.861Z,99705.06
2023-04-18T20:36:09.318Z,99710.41
2023-04-18T20:38:37.331Z,99709.34
2023-04-18T20:41:06.316Z,99709.34
2023-04-18T20:43:35.231Z,99719.28
2023-04-18T20:46:03.674Z,99716.66
2023-04-18T20:48:30.997Z,99718.28
2023-04-18T20:50:57.954Z,99730.09
2023-04-18T20:53:25.096Z,99726.41
2023-04-18T20:55:53.133Z,99717.72
2023-04-18T20:58:20.382Z,99718.81
2023-04-18T21:00:47.416Z,99726.97
2023-04-18T21:03:15.420Z,99721.13
2023-04-18T21:05:44.500Z,99716.66
2023-04-18T21:08:12.130Z,99711.69
2023-04-18T21:11:04.349Z,99720.25
2023-04-18T21:13:32.745Z,99727.38
2023-04-18T21:15:59.671Z,99726.75
2023-04-18T21:18:27.392Z,99730.19
2023-04-18T21:20:54.147Z,99727.56
2023-04-18T21:23:25.856Z,99731.56
2023-04-18T21:25:52.905Z,99731.13
2023-04-18T21:28:19.848Z,99728.50
2023-04-18T21:30:46.912Z,99726.66
2023-04-18T21:33:15.307Z,99728.97
2023-04-18T21:35:42.198Z,99730.06
2023-04-18T21:38:10.034Z,99725.56
2023-04-18T21:40:39.468Z,99731.81
2023-04-18T21:43:07.308Z,99730.34
2023-04-18T21:45:34.169Z,99731.41
2023-04-18T21:48:01.176Z,99730.16
2023-04-18T21:50:29.187Z,99729.06
2023-04-18T21:52:56.908Z,99730.34
2023-04-18T21:55:24.490Z,99732.78
2023-04-18T21:57:51.401Z,99726.72
2023-04-18T22:00:19.358Z,99730.22
2023-04-18T22:02:46.681Z,99730.78
2023-04-18T22:05:13.978Z,99722.22
2023-04-18T22:07:54.428Z,99719.13
2023-04-18T22:10:26.778Z,99721.75
2023-04-18T22:12:54.979Z,99727.00
2023-04-18T22:15:22.118Z,99721.75
2023-04-18T22:17:52.480Z,99717.25
2023-04-18T22:20:20.156Z,99712.97
2023-04-18T22:22:47.008Z,99722.44
2023-04-18T22:25:14.510Z,99721.97
2023-04-18T22:27:41.978Z,99715.72
2023-04-18T22:30:10.519Z,99717.81
2023-04-18T22:35:29.364Z,99720.47
2023-04-18T22:37:56.118Z,99709.63
2023-04-18T22:40:23.942Z,99709.63
2023-04-18T22:42:52.378Z,99705.19
2023-04-18T22:45:19.560Z,99700.97
2023-04-18T22:47:48.236Z,99697.28
2023-04-18T22:50:15.283Z,99704.47
2023-04-18T22:52:43.045Z,99702.59
2023-04-18T22:55:13.911Z,99702.81
2023-04-18T22:57:40.848Z,99705.44
2023-04-18T23:00:08.543Z,99707.59
2023-04-18T23:02:35.417Z,99702.34
2023-04-18T23:05:02.704Z,99701.84
2023-04-18T23:07:29.484Z,99696.00
2023-04-18T23:09:56.907Z,99696.06
2023-04-18T23:12:23.874Z,99707.97
2023-04-18T23:14:51.013Z,99700.63
2023-04-18T23:17:18.528Z,99698.00
2023-04-18T23:19:46.991Z,99694.66
2023-04-18T23:22:13.772Z,99699.69
2023-04-18T23:24:40.783Z,99694.94
2023-04-18T23:27:07.520Z,99692.88
2023-04-18T23:29:38.776Z,99694.72
2023-04-18T23:32:06.592Z,99682.34
2023-04-18T23:34:33.380Z,99690.25
2023-04-18T23:37:00.320Z,99687.41
2023-04-18T23:39:27.403Z,99681.63
2023-04-18T23:41:54.983Z,99676.97
2023-04-18T23:44:22.444Z,99676.97
2023-04-18T23:46:50.800Z,99681.72
2023-04-18T23:49:19.421Z,99682.22
2023-04-18T23:51:46.970Z,99669.44
2023-04-18T23:54:14.727Z,99671.06
2023-04-18T23:56:41.863Z,99669.84
2023-04-18T23:59:10.514Z,99667.84
